createdAt,value
2023-11-07T00:02:54.699Z,11.70
2023-11-07T00:05:58.284Z,10.18
2023-11-07T00:09:02.616Z,10.60
2023-11-07T00:12:06.751Z,11.60
2023-11-07T00:15:10.531Z,11.20
2023-11-07T00:18:14.002Z,10.57
2023-11-07T00:21:17.816Z,9.43
2023-11-07T00:24:21.764Z,10.17
2023-11-07T00:27:25.668Z,9.70
2023-11-07T00:30:29.026Z,12.15
2023-11-07T00:33:32.616Z,10.88
2023-11-07T00:36:36.101Z,13.07
2023-11-07T00:39:39.468Z,13.57
2023-11-07T00:42:43.717Z,12.13
2023-11-07T00:45:47.141Z,15.88
2023-11-07T00:48:50.619Z,13.30
2023-11-07T00:51:54.091Z,12.00
2023-11-07T00:54:57.741Z,16.00
2023-11-07T00:58:01.188Z,10.60
2023-11-07T01:01:05.360Z,10.85
2023-11-07T01:04:09.081Z,10.23
2023-11-07T01:07:12.567Z,11.48
2023-11-07T01:10:16.243Z,11.07
2023-11-07T01:13:19.698Z,10.03
2023-11-07T01:16:23.222Z,11.48
2023-11-07T01:19:28.255Z,10.93
2023-11-07T01:22:31.642Z,10.23
2023-11-07T01:25:35.049Z,11.43
2023-11-07T01:28:38.487Z,10.30
2023-11-07T01:31:41.885Z,8.85
2023-11-07T01:34:45.277Z,12.93
2023-11-07T01:37:48.927Z,11.00
2023-11-07T01:40:52.765Z,14.00
2023-11-07T01:43:56.155Z,10.27
2023-11-07T01:47:00.154Z,11.02
2023-11-07T01:50:06.243Z,11.07
2023-11-07T01:53:11.560Z,10.88
2023-11-07T01:56:15.390Z,11.57
2023-11-07T01:59:19.368Z,12.43
2023-11-07T02:02:24.598Z,10.63
2023-11-07T02:05:33.543Z,9.38
2023-11-07T02:08:46.418Z,9.48
2023-11-07T02:11:56.881Z,9.60
2023-11-07T02:15:00.421Z,10.80
2023-11-07T02:18:06.355Z,9.18
2023-11-07T02:21:09.890Z,8.90
2023-11-07T02:24:13.469Z,7.45
2023-11-07T02:27:19.950Z,10.33
2023-11-07T02:30:23.406Z,9.70
2023-11-07T02:33:27.566Z,9.93
2023-11-07T02:36:31.068Z,12.27
2023-11-07T02:39:34.611Z,11.32
2023-11-07T02:42:38.866Z,9.83
2023-11-07T02:45:42.597Z,8.20
2023-11-07T02:48:46.312Z,8.85
2023-11-07T02:52:08.437Z,9.43
2023-11-07T02:55:21.124Z,9.32
2023-11-07T02:58:29.010Z,9.40
2023-11-07T03:01:32.802Z,10.87
2023-11-07T03:04:36.219Z,8.63
2023-11-07T03:07:39.713Z,8.95
2023-11-07T03:10:43.355Z,9.52
2023-11-07T03:13:46.819Z,10.80
2023-11-07T03:16:50.179Z,9.87
2023-11-07T03:19:54.733Z,9.40
2023-11-07T03:22:59.512Z,9.95
2023-11-07T03:26:06.082Z,10.27
2023-11-07T03:29:14.293Z,9.73
2023-11-07T03:32:25.482Z,8.43
2023-11-07T03:35:31.275Z,7.82
2023-11-07T03:38:34.737Z,7.97
2023-11-07T03:41:42.576Z,8.32
2023-11-07T03:44:48.990Z,8.63
2023-11-07T03:47:54.694Z,9.43
2023-11-07T03:51:00.535Z,8.80
2023-11-07T03:54:04.089Z,7.40
2023-11-07T03:57:07.546Z,10.38
2023-11-07T04:00:12.103Z,7.10
2023-11-07T04:03:15.705Z,9.13
2023-11-07T04:06:19.669Z,7.88
2023-11-07T04:09:23.226Z,6.55
2023-11-07T04:12:26.658Z,9.73
2023-11-07T04:15:30.041Z,9.30
2023-11-07T04:18:33.558Z,6.60
2023-11-07T04:21:37.686Z,7.20
2023-11-07T04:24:41.666Z,8.35
2023-11-07T04:27:47.243Z,7.07
2023-11-07T04:30:50.846Z,7.87
2023-11-07T04:33:54.467Z,7.10
2023-11-07T04:36:59.010Z,6.78
2023-11-07T04:40:03.761Z,6.15
2023-11-07T04:43:08.919Z,7.20
2023-11-07T04:46:15.365Z,6.47
2023-11-07T04:49:18.967Z,5.73
2023-11-07T04:52:22.472Z,6.25
2023-11-07T04:55:25.860Z,6.75
2023-11-07T04:58:30.361Z,6.30
2023-11-07T05:01:33.736Z,11.43
2023-11-07T05:04:37.281Z,5.63
2023-11-07T05:07:40.781Z,5.28
2023-11-07T05:10:44.397Z,5.50
2023-11-07T05:13:50.821Z,4.95
2023-11-07T05:16:57.121Z,8.53
2023-11-07T05:20:00.521Z,5.07
2023-11-07T05:23:04.283Z,6.10
2023-11-07T05:26:08.018Z,7.85
2023-11-07T05:29:14.595Z,9.27
2023-11-07T05:32:17.985Z,5.83
2023-11-07T05:35:21.356Z,6.40
2023-11-07T05:38:24.774Z,8.48
2023-11-07T05:41:28.758Z,8.48
2023-11-07T05:44:32.335Z,7.18
2023-11-07T05:47:40.157Z,8.50
2023-11-07T05:50:43.936Z,7.00
2023-11-07T05:53:47.695Z,5.50
2023-11-07T05:56:53.344Z,7.18
2023-11-07T05:59:57.637Z,5.80
2023-11-07T06:03:01.329Z,7.90
2023-11-07T06:06:05.152Z,4.47
2023-11-07T06:09:08.650Z,6.78
2023-11-07T06:12:12.687Z,7.05
2023-11-07T06:15:16.388Z,6.40
2023-11-07T06:18:19.977Z,5.27
2023-11-07T06:21:24.149Z,5.30
2023-11-07T06:24:28.208Z,11.90
2023-11-07T06:27:32.213Z,7.82
2023-11-07T06:30:36.167Z,6.80
2023-11-07T06:33:40.335Z,7.13
2023-11-07T06:36:44.742Z,6.37
2023-11-07T06:39:48.253Z,7.88
2023-11-07T06:42:54.109Z,9.10
2023-11-07T06:46:00.007Z,7.22
2023-11-07T06:49:06.164Z,8.17
2023-11-07T06:52:10.686Z,8.57
2023-11-07T06:55:14.919Z,8.85
2023-11-07T06:58:18.372Z,11.63
2023-11-07T07:01:21.786Z,8.90
2023-11-07T07:04:25.314Z,6.33
2023-11-07T07:07:28.752Z,9.67
2023-11-07T07:10:33.473Z,12.88
2023-11-07T07:13:36.979Z,7.63
2023-11-07T07:16:40.746Z,9.60
2023-11-07T07:19:44.444Z,11.43
2023-11-07T07:22:48.374Z,8.10
2023-11-07T07:25:53.146Z,9.43
2023-11-07T07:28:56.523Z,7.28
2023-11-07T07:32:00.915Z,7.88
2023-11-07T07:35:10.475Z,9.20
2023-11-07T07:38:15.766Z,8.60
2023-11-07T07:41:19.807Z,9.02
2023-11-07T07:44:26.070Z,8.73
2023-11-07T07:47:29.543Z,8.18
2023-11-07T07:50:33.102Z,12.63
2023-11-07T07:53:36.647Z,7.57
2023-11-07T07:56:40.199Z,8.75
2023-11-07T07:59:43.877Z,6.78
2023-11-07T08:02:48.024Z,8.93
2023-11-07T08:05:52.978Z,19.57
2023-11-07T08:08:56.506Z,20.33
2023-11-07T08:12:01.606Z,13.52
2023-11-07T08:15:08.892Z,13.73
2023-11-07T08:18:12.712Z,8.00
2023-11-07T08:21:16.379Z,8.23
2023-11-07T08:24:19.933Z,6.90
2023-11-07T08:27:23.817Z,10.63
2023-11-07T08:30:27.590Z,7.97
2023-11-07T08:33:31.800Z,7.28
2023-11-07T08:36:35.852Z,6.20
2023-11-07T08:39:42.190Z,8.13
2023-11-07T08:42:46.676Z,8.05
2023-11-07T08:45:50.573Z,11.10
2023-11-07T08:48:54.925Z,9.07
2023-11-07T08:51:59.017Z,7.33
2023-11-07T08:55:04.855Z,6.00
2023-11-07T08:58:08.661Z,7.28
2023-11-07T09:01:12.090Z,17.20
2023-11-07T09:04:16.098Z,6.72
2023-11-07T09:07:20.404Z,9.97
2023-11-07T09:10:23.868Z,8.47
2023-11-07T09:13:28.951Z,4.82
2023-11-07T09:16:32.305Z,6.07
2023-11-07T09:19:35.827Z,8.20
2023-11-07T09:22:40.682Z,9.93
2023-11-07T09:25:44.165Z,7.77
2023-11-07T09:28:47.679Z,7.10
2023-11-07T09:31:53.614Z,5.43
2023-11-07T09:34:58.496Z,7.70
2023-11-07T09:38:02.004Z,6.93
2023-11-07T09:41:06.700Z,7.30
2023-11-07T09:44:12.823Z,8.95
2023-11-07T09:47:16.380Z,11.65
2023-11-07T09:50:22.405Z,9.02
2023-11-07T09:53:27.389Z,8.17
2023-11-07T09:56:40.443Z,8.03
2023-11-07T09:59:55.725Z,7.07
2023-11-07T10:03:00.721Z,7.38
2023-11-07T10:06:04.442Z,6.43
2023-11-07T10:09:07.921Z,7.63
2023-11-07T10:12:17.927Z,11.37
2023-11-07T10:15:24.784Z,8.85
2023-11-07T10:18:29.546Z,5.10
2023-11-07T10:21:34.051Z,5.95
2023-11-07T10:24:46.933Z,9.10
2023-11-07T10:27:55.802Z,7.00
2023-11-07T10:31:21.886Z,8.10
2023-11-07T10:34:27.448Z,7.72
2023-11-07T10:37:37.694Z,7.13
2023-11-07T10:40:41.568Z,5.50
2023-11-07T10:43:45.224Z,8.17
2023-11-07T10:46:50.885Z,9.85
2023-11-07T10:49:56.568Z,14.48
2023-11-07T10:53:00.340Z,9.40
2023-11-07T10:56:15.321Z,9.23
2023-11-07T10:59:24.834Z,6.20
2023-11-07T11:02:28.778Z,8.75
2023-11-07T11:05:34.427Z,8.32
2023-11-07T11:08:39.038Z,7.90
2023-11-07T11:11:43.800Z,8.03
2023-11-07T11:14:47.608Z,8.20
2023-11-07T11:18:08.063Z,5.72
2023-11-07T11:21:25.382Z,11.18
2023-11-07T11:24:43.941Z,7.25
2023-11-07T11:27:53.950Z,5.70
2023-11-07T11:30:57.527Z,9.23
2023-11-07T11:34:33.289Z,5.70
2023-11-07T11:38:11.291Z,7.50
2023-11-07T11:41:14.687Z,5.63
2023-11-07T11:44:18.052Z,8.00
2023-11-07T11:47:50.897Z,9.67
2023-11-07T11:51:32.912Z,9.57
2023-11-07T11:54:36.304Z,5.90
2023-11-07T11:58:12.753Z,8.60
2023-11-07T12:01:18.170Z,6.53
2023-11-07T12:04:41.955Z,10.63
2023-11-07T12:07:49.131Z,9.77
2023-11-07T12:10:59.476Z,8.18
2023-11-07T12:14:03.588Z,9.65
2023-11-07T12:17:07.007Z,8.73
2023-11-07T12:20:15.418Z,8.07
2023-11-07T12:23:19.025Z,10.10
2023-11-07T12:26:22.495Z,7.57
2023-11-07T12:29:36.710Z,6.68
2023-11-07T12:32:40.245Z,9.60
2023-11-07T12:35:43.788Z,9.40
2023-11-07T12:38:47.447Z,10.95
2023-11-07T12:41:51.028Z,7.93
2023-11-07T12:44:54.556Z,7.72
2023-11-07T12:48:06.667Z,10.60
2023-11-07T12:51:11.020Z,6.63
2023-11-07T12:54:15.660Z,8.02
2023-11-07T12:57:19.131Z,7.28
2023-11-07T13:00:23.351Z,6.97
2023-11-07T13:03:33.851Z,6.47
2023-11-07T13:06:50.434Z,7.70
2023-11-07T13:09:56.233Z,9.00
2023-11-07T13:13:00.931Z,8.13
2023-11-07T13:16:05.346Z,6.15
2023-11-07T13:19:08.946Z,8.10
2023-11-07T13:22:18.813Z,8.70
2023-11-07T13:25:22.289Z,6.90
2023-11-07T13:28:26.784Z,6.55
2023-11-07T13:31:32.317Z,8.15
2023-11-07T13:34:36.075Z,8.33
2023-11-07T13:37:39.581Z,6.90
2023-11-07T13:40:43.134Z,9.13
2023-11-07T13:43:46.643Z,7.85
2023-11-07T13:46:50.310Z,11.05
2023-11-07T13:49:53.712Z,9.87
2023-11-07T13:52:59.801Z,7.13
2023-11-07T13:56:04.497Z,10.18
2023-11-07T13:59:08.114Z,11.27
2023-11-07T14:02:11.524Z,12.32
2023-11-07T14:05:16.273Z,6.33
2023-11-07T14:08:20.171Z,10.73
2023-11-07T14:11:23.613Z,10.15
2023-11-07T14:14:27.060Z,13.48
2023-11-07T14:17:33.205Z,11.35
2023-11-07T14:20:36.719Z,8.73
2023-11-07T14:23:42.058Z,8.27
2023-11-07T14:26:46.266Z,9.38
2023-11-07T14:30:08.422Z,5.93
2023-11-07T14:33:17.115Z,9.77
2023-11-07T14:36:20.883Z,8.17
2023-11-07T14:39:24.716Z,11.63
2023-11-07T14:42:28.415Z,9.93
2023-11-07T14:45:32.365Z,11.68
2023-11-07T14:48:36.165Z,8.23
2023-11-07T14:51:39.783Z,7.53
2023-11-07T14:54:43.175Z,6.83
2023-11-07T14:57:47.682Z,4.45
2023-11-07T15:00:52.524Z,5.97
2023-11-07T15:03:56.746Z,5.93
2023-11-07T15:07:00.234Z,4.93
2023-11-07T15:10:03.913Z,7.30
2023-11-07T15:13:09.171Z,4.85
2023-11-07T15:16:12.744Z,6.78
2023-11-07T15:19:17.159Z,7.53
2023-11-07T15:22:21.800Z,8.90
2023-11-07T15:25:31.592Z,8.20
2023-11-07T15:28:35.480Z,12.57
2023-11-07T15:31:39.498Z,12.60
2023-11-07T15:34:42.961Z,11.68
2023-11-07T15:37:47.930Z,11.87
2023-11-07T15:40:51.349Z,13.10
2023-11-07T15:43:54.860Z,9.07
2023-11-07T15:46:58.241Z,15.40
2023-11-07T15:50:06.303Z,10.38
2023-11-07T15:53:10.678Z,8.53
2023-11-07T15:56:14.318Z,11.70
2023-11-07T15:59:19.644Z,10.73
2023-11-07T16:02:27.712Z,11.27
2023-11-07T16:05:34.503Z,10.50
2023-11-07T16:08:38.079Z,11.03
2023-11-07T16:11:41.457Z,8.57
2023-11-07T16:14:44.870Z,11.15
2023-11-07T16:17:50.011Z,10.27
2023-11-07T16:20:54.575Z,10.93
2023-11-07T16:23:59.382Z,9.53
2023-11-07T16:27:09.649Z,13.73
2023-11-07T16:30:15.318Z,12.68
2023-11-07T16:33:19.043Z,13.55
2023-11-07T16:36:23.306Z,11.35
2023-11-07T16:39:27.436Z,13.90
2023-11-07T16:42:32.544Z,13.83
2023-11-07T16:45:36.069Z,13.07
2023-11-07T16:48:39.756Z,15.20
2023-11-07T16:51:43.599Z,12.13
2023-11-07T16:54:47.470Z,13.50
2023-11-07T16:57:50.887Z,17.20
2023-11-07T17:00:54.563Z,12.40
2023-11-07T17:03:58.051Z,12.43
2023-11-07T17:07:01.565Z,16.60
2023-11-07T17:10:08.258Z,13.53
2023-11-07T17:13:11.784Z,13.90
2023-11-07T17:16:15.209Z,15.93
2023-11-07T17:19:18.707Z,16.88
2023-11-07T17:22:22.089Z,17.23
2023-11-07T17:25:25.564Z,15.13
2023-11-07T17:28:29.015Z,13.30
2023-11-07T17:31:32.510Z,14.38
2023-11-07T17:34:36.400Z,15.40
2023-11-07T17:37:40.436Z,14.40
2023-11-07T17:40:43.876Z,15.43
2023-11-07T17:43:48.133Z,13.97
2023-11-07T17:46:51.953Z,13.25
2023-11-07T17:49:55.499Z,14.70
2023-11-07T17:53:00.056Z,14.07
2023-11-07T17:56:03.727Z,12.37
2023-11-07T17:59:08.397Z,12.77
2023-11-07T18:02:13.209Z,15.52
2023-11-07T18:05:17.190Z,47.25
2023-11-07T18:08:20.774Z,35.40
2023-11-07T18:11:28.904Z,20.43
2023-11-07T18:14:32.351Z,22.43
2023-11-07T18:17:36.378Z,19.63
2023-11-07T18:20:39.840Z,16.42
2023-11-07T18:23:43.413Z,12.73
2023-11-07T18:26:52.214Z,14.10
2023-11-07T18:29:58.756Z,10.37
2023-11-07T18:33:09.307Z,13.50
2023-11-07T18:36:13.326Z,12.35
2023-11-07T18:39:16.772Z,16.73
2023-11-07T18:42:21.566Z,12.17
2023-11-07T18:45:25.206Z,12.90
2023-11-07T18:48:29.149Z,13.60
2023-11-07T18:51:32.836Z,14.48
2023-11-07T18:54:37.741Z,11.60
2023-11-07T18:57:43.340Z,14.57
2023-11-07T19:00:47.347Z,18.73
2023-11-07T19:03:51.750Z,23.30
2023-11-07T19:06:55.153Z,19.98
2023-11-07T19:10:02.090Z,18.10
2023-11-07T19:13:05.949Z,15.43
2023-11-07T19:16:10.016Z,15.03
2023-11-07T19:19:13.805Z,16.20
2023-11-07T19:22:17.752Z,14.02
2023-11-07T19:25:21.481Z,12.73
2023-11-07T19:28:26.469Z,11.93
2023-11-07T19:31:31.890Z,11.93
2023-11-07T19:34:35.741Z,14.70
2023-11-07T19:37:40.137Z,12.32
2023-11-07T19:40:45.021Z,12.30
2023-11-07T19:43:51.905Z,13.10
2023-11-07T19:46:57.242Z,12.83
2023-11-07T19:50:01.364Z,11.02
2023-11-07T19:53:11.790Z,11.35
2023-11-07T19:56:15.926Z,12.27
2023-11-07T19:59:19.571Z,12.40
2023-11-07T20:02:23.978Z,13.73
2023-11-07T20:05:27.935Z,14.80
2023-11-07T20:08:32.555Z,12.77
2023-11-07T20:11:37.722Z,15.63
2023-11-07T20:14:41.545Z,15.20
2023-11-07T20:17:45.137Z,15.20
2023-11-07T20:20:49.010Z,12.02
2023-11-07T20:23:54.864Z,13.23
2023-11-07T20:26:58.679Z,14.30
2023-11-07T20:30:03.489Z,12.57
2023-11-07T20:33:09.292Z,15.07
2023-11-07T20:36:23.630Z,16.58
2023-11-07T20:39:36.861Z,13.90
2023-11-07T20:42:44.825Z,13.55
2023-11-07T20:45:57.310Z,16.93
2023-11-07T20:49:00.995Z,14.10
2023-11-07T20:52:15.350Z,15.27
2023-11-07T20:55:27.261Z,17.52
2023-11-07T20:58:30.730Z,18.25
2023-11-07T21:01:34.462Z,20.33
2023-11-07T21:04:38.142Z,21.20
2023-11-07T21:07:42.517Z,21.35
2023-11-07T21:10:49.644Z,21.38
2023-11-07T21:13:58.589Z,24.67
2023-11-07T21:17:07.882Z,22.47
2023-11-07T21:20:12.076Z,23.93
2023-11-07T21:23:15.579Z,25.20
2023-11-07T21:26:19.118Z,30.90
2023-11-07T21:29:22.756Z,26.17
2023-11-07T21:32:28.540Z,22.60
2023-11-07T21:35:31.977Z,22.73
2023-11-07T21:38:35.975Z,19.40
2023-11-07T21:41:42.626Z,18.15
2023-11-07T21:44:51.854Z,17.73
2023-11-07T21:48:01.117Z,16.20
2023-11-07T21:51:13.892Z,18.13
2023-11-07T21:54:21.473Z,20.27
2023-11-07T21:57:25.728Z,19.42
2023-11-07T22:00:29.328Z,17.27
2023-11-07T22:03:34.123Z,14.90
2023-11-07T22:06:37.979Z,14.40
2023-11-07T22:09:41.460Z,15.65
2023-11-07T22:12:45.092Z,15.68
2023-11-07T22:15:48.569Z,18.00
2023-11-07T22:18:52.048Z,16.70
2023-11-07T22:21:55.484Z,20.33
2023-11-07T22:24:59.368Z,14.45
2023-11-07T22:28:02.888Z,17.80
2023-11-07T22:31:06.835Z,18.25
2023-11-07T22:34:10.348Z,22.07
2023-11-07T22:37:13.821Z,18.00
2023-11-07T22:40:17.226Z,17.95
2023-11-07T22:43:20.661Z,17.77
2023-11-07T22:46:28.817Z,18.40
2023-11-07T22:49:35.424Z,17.53
2023-11-07T22:52:47.145Z,17.03
2023-11-07T22:55:53.011Z,16.63
2023-11-07T22:58:59.933Z,15.98
2023-11-07T23:02:10.831Z,19.25
2023-11-07T23:05:30.629Z,20.23
2023-11-07T23:08:39.340Z,18.37
2023-11-07T23:11:49.731Z,23.58
2023-11-07T23:15:12.561Z,18.48
2023-11-07T23:18:16.226Z,20.17
2023-11-07T23:21:22.555Z,16.97
2023-11-07T23:24:26.623Z,23.07
2023-11-07T23:27:33.417Z,20.40
2023-11-07T23:30:38.160Z,18.27
2023-11-07T23:33:42.003Z,15.02
2023-11-07T23:36:46.186Z,16.93
2023-11-07T23:39:49.965Z,17.63
2023-11-07T23:42:53.413Z,18.80
2023-11-07T23:45:56.865Z,20.15
2023-11-07T23:49:00.245Z,18.40
2023-11-07T23:52:04.963Z,22.97
2023-11-07T23:55:09.243Z,20.07
2023-11-07T23:58:12.823Z,20.50
